sensor_id;sensor_type;location;lat;lon;timestamp;pressure;altitude;pressure_sealevel;temperature;humidity
21826;BME280;11075;47.944;11.776;2022-09-09T00:02:28;94493.53;;;17.44;27.75
21826;BME280;11075;47.944;11.776;2022-09-09T00:07:49;94508.00;;;18.05;27.07
21826;BME280;11075;47.944;11.776;2022-09-09T00:10:26;94540.94;;;19.00;25.76
21826;BME280;11075;47.944;11.776;2022-09-09T00:13:10;94529.00;;;18.44;26.09
21826;BME280;11075;47.944;11.776;2022-09-09T00:15:57;94520.44;;;17.92;27.15
21826;BME280;11075;47.944;11.776;2022-09-09T00:18:33;94521.94;;;17.54;27.15
21826;BME280;11075;47.944;11.776;2022-09-09T00:21:11;94513.38;;;17.48;28.14
21826;BME280;11075;47.944;11.776;2022-09-09T00:23:48;94509.91;;;17.66;27.17
21826;BME280;11075;47.944;11.776;2022-09-09T00:26:41;94527.44;;;17.86;26.77
21826;BME280;11075;47.944;11.776;2022-09-09T00:31:39;94515.75;;;17.68;27.69
21826;BME280;11075;47.944;11.776;2022-09-09T00:34:12;94535.97;;;18.59;26.62
21826;BME280;11075;47.944;11.776;2022-09-09T00:36:41;94538.09;;;19.28;26.07
21826;BME280;11075;47.944;11.776;2022-09-09T00:39:17;94503.66;;;17.55;28.38
21826;BME280;11075;47.944;11.776;2022-09-09T00:44:39;94523.03;;;18.92;26.71
21826;BME280;11075;47.944;11.776;2022-09-09T00:56:14;94494.38;;;17.77;28.21
21826;BME280;11075;47.944;11.776;2022-09-09T00:58:43;94524.53;;;19.80;25.69
21826;BME280;11075;47.944;11.776;2022-09-09T01:01:13;94504.56;;;19.24;26.80
21826;BME280;11075;47.944;11.776;2022-09-09T01:06:34;94521.94;;;19.62;26.38
21826;BME280;11075;47.944;11.776;2022-09-09T01:09:18;94512.50;;;18.94;27.27
21826;BME280;11075;47.944;11.776;2022-09-09T01:22:33;94510.59;;;18.84;27.40
21826;BME280;11075;47.944;11.776;2022-09-09T01:25:18;94505.97;;;18.56;27.63
21826;BME280;11075;47.944;11.776;2022-09-09T01:28:11;94500.94;;;18.47;27.98
21826;BME280;11075;47.944;11.776;2022-09-09T01:30:41;94529.09;;;19.38;27.08
21826;BME280;11075;47.944;11.776;2022-09-09T01:33:14;94498.25;;;17.94;28.80
21826;BME280;11075;47.944;11.776;2022-09-09T01:35:55;94508.75;;;18.17;28.76
21826;BME280;11075;47.944;11.776;2022-09-09T01:38:28;94523.47;;;18.87;27.60
21826;BME280;11075;47.944;11.776;2022-09-09T01:40:56;94512.66;;;18.26;28.32
21826;BME280;11075;47.944;11.776;2022-09-09T01:43:34;94488.69;;;16.92;30.32
21826;BME280;11075;47.944;11.776;2022-09-09T01:46:01;94507.56;;;17.54;29.57
21826;BME280;11075;47.944;11.776;2022-09-09T01:48:30;94539.34;;;19.13;27.70
21826;BME280;11075;47.944;11.776;2022-09-09T01:51:02;94531.56;;;19.04;27.64
21826;BME280;11075;47.944;11.776;2022-09-09T01:53:29;94533.94;;;19.02;27.58
21826;BME280;11075;47.944;11.776;2022-09-09T01:56:02;94540.47;;;19.19;27.81
21826;BME280;11075;47.944;11.776;2022-09-09T02:07:40;94516.09;;;17.48;30.24
21826;BME280;11075;47.944;11.776;2022-09-09T02:10:24;94520.84;;;17.84;29.69
21826;BME280;11075;47.944;11.776;2022-09-09T02:13:10;94531.72;;;18.55;28.91
21826;BME280;11075;47.944;11.776;2022-09-09T02:18:12;94521.75;;;19.21;27.64
21826;BME280;11075;47.944;11.776;2022-09-09T02:20:43;94516.38;;;19.00;28.32
21826;BME280;11075;47.944;11.776;2022-09-09T02:23:11;94532.97;;;20.03;26.57
21826;BME280;11075;47.944;11.776;2022-09-09T02:25:41;94509.66;;;19.19;28.00
21826;BME280;11075;47.944;11.776;2022-09-09T02:28:20;94498.22;;;18.43;29.36
21826;BME280;11075;47.944;11.776;2022-09-09T02:30:51;94509.53;;;18.35;29.17
21826;BME280;11075;47.944;11.776;2022-09-09T02:33:32;94515.75;;;18.42;28.96
21826;BME280;11075;47.944;11.776;2022-09-09T02:36:01;94497.88;;;17.74;30.06
21826;BME280;11075;47.944;11.776;2022-09-09T02:38:34;94497.75;;;17.17;30.96
21826;BME280;11075;47.944;11.776;2022-09-09T02:41:08;94500.44;;;17.10;30.97
21826;BME280;11075;47.944;11.776;2022-09-09T02:43:35;94496.78;;;16.74;30.92
21826;BME280;11075;47.944;11.776;2022-09-09T02:48:59;94514.59;;;17.83;30.27
21826;BME280;11075;47.944;11.776;2022-09-09T02:54:37;94496.22;;;17.27;30.81
21826;BME280;11075;47.944;11.776;2022-09-09T02:59:40;94521.97;;;18.57;29.47
21826;BME280;11075;47.944;11.776;2022-09-09T03:02:08;94505.66;;;18.25;29.46
21826;BME280;11075;47.944;11.776;2022-09-09T03:04:38;94493.31;;;16.77;31.43
21826;BME280;11075;47.944;11.776;2022-09-09T03:07:05;94499.75;;;17.48;31.01
21826;BME280;11075;47.944;11.776;2022-09-09T03:09:32;94510.31;;;18.03;30.13
21826;BME280;11075;47.944;11.776;2022-09-09T03:11:59;94500.03;;;17.08;31.52
21826;BME280;11075;47.944;11.776;2022-09-09T03:14:29;94491.25;;;18.00;29.92
21826;BME280;11075;47.944;11.776;2022-09-09T03:16:57;94476.47;;;17.94;30.50
21826;BME280;11075;47.944;11.776;2022-09-09T03:19:30;94478.78;;;18.09;30.03
21826;BME280;11075;47.944;11.776;2022-09-09T03:21:58;94472.94;;;17.97;29.99
21826;BME280;11075;47.944;11.776;2022-09-09T03:24:25;94465.94;;;17.96;30.60
21826;BME280;11075;47.944;11.776;2022-09-09T03:26:53;94477.88;;;18.73;29.23
21826;BME280;11075;47.944;11.776;2022-09-09T03:29:20;94480.44;;;19.12;28.79
21826;BME280;11075;47.944;11.776;2022-09-09T03:31:47;94448.78;;;18.09;30.04
21826;BME280;11075;47.944;11.776;2022-09-09T03:34:13;94468.13;;;18.83;29.21
21826;BME280;11075;47.944;11.776;2022-09-09T03:36:40;94470.84;;;18.75;28.92
21826;BME280;11075;47.944;11.776;2022-09-09T03:39:10;94474.41;;;18.58;29.25
21826;BME280;11075;47.944;11.776;2022-09-09T03:41:40;94503.47;;;19.81;27.17
21826;BME280;11075;47.944;11.776;2022-09-09T03:44:07;94490.88;;;19.94;27.38
21826;BME280;11075;47.944;11.776;2022-09-09T03:46:37;94493.69;;;19.80;27.49
21826;BME280;11075;47.944;11.776;2022-09-09T03:49:04;94477.25;;;19.24;28.20
21826;BME280;11075;47.944;11.776;2022-09-09T03:51:31;94477.47;;;19.58;27.40
21826;BME280;11075;47.944;11.776;2022-09-09T03:54:04;94490.56;;;20.29;26.39
21826;BME280;11075;47.944;11.776;2022-09-09T03:56:34;94501.59;;;20.97;25.68
21826;BME280;11075;47.944;11.776;2022-09-09T03:59:02;94484.25;;;20.74;25.97
21826;BME280;11075;47.944;11.776;2022-09-09T04:01:29;94483.34;;;20.50;25.98
21826;BME280;11075;47.944;11.776;2022-09-09T04:03:56;94488.94;;;20.73;25.49
21826;BME280;11075;47.944;11.776;2022-09-09T04:06:25;94495.66;;;20.69;25.93
21826;BME280;11075;47.944;11.776;2022-09-09T04:08:52;94497.16;;;20.73;26.09
21826;BME280;11075;47.944;11.776;2022-09-09T04:11:20;94477.09;;;19.56;27.39
21826;BME280;11075;47.944;11.776;2022-09-09T04:13:49;94494.63;;;20.11;26.57
21826;BME280;11075;47.944;11.776;2022-09-09T04:16:17;94492.63;;;20.18;26.71
21826;BME280;11075;47.944;11.776;2022-09-09T04:18:44;94480.31;;;19.96;26.75
21826;BME280;11075;47.944;11.776;2022-09-09T04:21:13;94473.56;;;20.08;26.75
21826;BME280;11075;47.944;11.776;2022-09-09T04:23:40;94446.84;;;19.22;28.10
21826;BME280;11075;47.944;11.776;2022-09-09T04:26:07;94463.59;;;20.31;26.45
21826;BME280;11075;47.944;11.776;2022-09-09T04:28:35;94468.72;;;20.26;26.45
21826;BME280;11075;47.944;11.776;2022-09-09T04:31:18;94462.66;;;20.04;26.78
21826;BME280;11075;47.944;11.776;2022-09-09T04:33:47;94469.06;;;20.28;26.33
21826;BME280;11075;47.944;11.776;2022-09-09T04:36:16;94449.16;;;19.27;27.99
21826;BME280;11075;47.944;11.776;2022-09-09T04:38:43;94460.53;;;19.15;27.80
21826;BME280;11075;47.944;11.776;2022-09-09T04:41:12;94469.84;;;20.28;26.35
21826;BME280;11075;47.944;11.776;2022-09-09T04:43:42;94489.06;;;20.62;25.62
21826;BME280;11075;47.944;11.776;2022-09-09T04:46:10;94472.72;;;20.14;26.59
21826;BME280;11075;47.944;11.776;2022-09-09T04:48:37;94447.09;;;18.65;28.53
21826;BME280;11075;47.944;11.776;2022-09-09T04:51:08;94457.63;;;19.47;27.64
21826;BME280;11075;47.944;11.776;2022-09-09T04:53:37;94447.53;;;19.41;27.60
21826;BME280;11075;47.944;11.776;2022-09-09T04:56:09;94462.81;;;19.86;26.84
21826;BME280;11075;47.944;11.776;2022-09-09T04:58:41;94460.00;;;19.97;26.83
21826;BME280;11075;47.944;11.776;2022-09-09T05:01:18;94467.19;;;20.21;26.46
21826;BME280;11075;47.944;11.776;2022-09-09T05:03:47;94466.41;;;20.21;26.26
21826;BME280;11075;47.944;11.776;2022-09-09T05:06:20;94464.81;;;20.64;25.95
21826;BME280;11075;47.944;11.776;2022-09-09T05:08:49;94431.34;;;19.08;27.67
21826;BME280;11075;47.944;11.776;2022-09-09T05:11:21;94465.53;;;20.69;25.88
21826;BME280;11075;47.944;11.776;2022-09-09T05:13:56;94454.84;;;20.06;27.02
21826;BME280;11075;47.944;11.776;2022-09-09T05:16:24;94463.91;;;20.41;26.07
21826;BME280;11075;47.944;11.776;2022-09-09T05:18:51;94475.00;;;20.60;26.45
21826;BME280;11075;47.944;11.776;2022-09-09T05:21:20;94474.47;;;20.73;25.82
21826;BME280;11075;47.944;11.776;2022-09-09T05:23:47;94470.88;;;20.45;26.47
21826;BME280;11075;47.944;11.776;2022-09-09T05:26:16;94474.41;;;20.80;26.00
21826;BME280;11075;47.944;11.776;2022-09-09T05:28:46;94464.19;;;20.09;26.51
21826;BME280;11075;47.944;11.776;2022-09-09T05:31:15;94474.13;;;20.71;26.05
21826;BME280;11075;47.944;11.776;2022-09-09T05:33:45;94457.38;;;19.79;27.35
21826;BME280;11075;47.944;11.776;2022-09-09T05:36:15;94478.59;;;20.54;26.46
21826;BME280;11075;47.944;11.776;2022-09-09T05:38:44;94490.19;;;21.03;25.72
21826;BME280;11075;47.944;11.776;2022-09-09T05:41:13;94477.53;;;20.44;26.52
21826;BME280;11075;47.944;11.776;2022-09-09T05:43:45;94475.84;;;20.16;27.13
21826;BME280;11075;47.944;11.776;2022-09-09T05:46:17;94475.06;;;20.16;26.80
21826;BME280;11075;47.944;11.776;2022-09-09T05:48:48;94480.47;;;20.23;27.00
21826;BME280;11075;47.944;11.776;2022-09-09T05:51:24;94467.66;;;18.95;28.57
21826;BME280;11075;47.944;11.776;2022-09-09T05:53:53;94474.50;;;18.01;29.78
21826;BME280;11075;47.944;11.776;2022-09-09T05:56:27;94494.44;;;19.21;28.27
21826;BME280;11075;47.944;11.776;2022-09-09T05:58:56;94469.44;;;17.64;30.55
21826;BME280;11075;47.944;11.776;2022-09-09T06:01:30;94504.19;;;19.29;28.48
21826;BME280;11075;47.944;11.776;2022-09-09T06:03:58;94489.84;;;19.04;28.88
21826;BME280;11075;47.944;11.776;2022-09-09T06:06:27;94483.69;;;18.86;28.64
21826;BME280;11075;47.944;11.776;2022-09-09T06:08:57;94487.47;;;19.13;28.55
21826;BME280;11075;47.944;11.776;2022-09-09T06:11:31;94509.59;;;20.44;26.95
21826;BME280;11075;47.944;11.776;2022-09-09T06:13:59;94506.78;;;20.88;26.26
21826;BME280;11075;47.944;11.776;2022-09-09T06:16:29;94526.03;;;22.00;24.94
21826;BME280;11075;47.944;11.776;2022-09-09T06:19:00;94500.16;;;20.86;26.49
21826;BME280;11075;47.944;11.776;2022-09-09T06:21:30;94500.84;;;20.93;26.19
21826;BME280;11075;47.944;11.776;2022-09-09T06:24:00;94463.94;;;19.37;28.40
21826;BME280;11075;47.944;11.776;2022-09-09T06:26:32;94480.44;;;19.82;27.66
21826;BME280;11075;47.944;11.776;2022-09-09T06:29:02;94496.63;;;20.51;27.11
21826;BME280;11075;47.944;11.776;2022-09-09T06:31:32;94489.03;;;20.25;27.51
21826;BME280;11075;47.944;11.776;2022-09-09T06:34:13;94501.25;;;20.13;27.41
21826;BME280;11075;47.944;11.776;2022-09-09T06:36:44;94464.38;;;17.98;30.27
21826;BME280;11075;47.944;11.776;2022-09-09T06:39:12;94485.97;;;19.01;29.14
21826;BME280;11075;47.944;11.776;2022-09-09T06:41:41;94516.69;;;21.09;26.74
21826;BME280;11075;47.944;11.776;2022-09-09T06:44:29;94490.91;;;20.35;27.77
21826;BME280;11075;47.944;11.776;2022-09-09T06:47:02;94503.22;;;20.54;27.90
21826;BME280;11075;47.944;11.776;2022-09-09T06:49:30;94506.81;;;20.85;27.46
21826;BME280;11075;47.944;11.776;2022-09-09T06:51:57;94505.28;;;21.14;27.51
21826;BME280;11075;47.944;11.776;2022-09-09T06:54:24;94493.19;;;20.81;27.36
21826;BME280;11075;47.944;11.776;2022-09-09T06:56:52;94516.31;;;21.95;26.29
21826;BME280;11075;47.944;11.776;2022-09-09T06:59:22;94496.81;;;20.67;27.67
21826;BME280;11075;47.944;11.776;2022-09-09T07:01:52;94486.56;;;19.96;28.68
21826;BME280;11075;47.944;11.776;2022-09-09T07:04:22;94498.50;;;20.17;28.73
21826;BME280;11075;47.944;11.776;2022-09-09T07:06:49;94507.97;;;21.18;27.19
21826;BME280;11075;47.944;11.776;2022-09-09T07:09:20;94511.78;;;21.85;26.37
21826;BME280;11075;47.944;11.776;2022-09-09T07:11:51;94492.22;;;20.95;27.49
21826;BME280;11075;47.944;11.776;2022-09-09T07:14:22;94506.59;;;21.37;26.78
21826;BME280;11075;47.944;11.776;2022-09-09T07:16:56;94476.94;;;19.74;28.64
21826;BME280;11075;47.944;11.776;2022-09-09T07:19:29;94480.28;;;18.46;30.52
21826;BME280;11075;47.944;11.776;2022-09-09T07:21:56;94513.31;;;20.60;27.65
21826;BME280;11075;47.944;11.776;2022-09-09T07:24:24;94500.75;;;21.35;27.49
21826;BME280;11075;47.944;11.776;2022-09-09T07:26:51;94514.41;;;22.62;25.59
21826;BME280;11075;47.944;11.776;2022-09-09T07:29:19;94512.63;;;22.52;25.75
21826;BME280;11075;47.944;11.776;2022-09-09T07:31:48;94499.50;;;21.93;26.82
21826;BME280;11075;47.944;11.776;2022-09-09T07:34:20;94503.94;;;22.10;26.14
21826;BME280;11075;47.944;11.776;2022-09-09T07:36:47;94493.72;;;21.87;26.78
21826;BME280;11075;47.944;11.776;2022-09-09T07:39:17;94501.38;;;21.46;26.97
21826;BME280;11075;47.944;11.776;2022-09-09T07:41:48;94510.16;;;21.87;26.89
21826;BME280;11075;47.944;11.776;2022-09-09T07:44:20;94502.31;;;21.02;27.57
21826;BME280;11075;47.944;11.776;2022-09-09T07:46:53;94521.84;;;21.38;27.19
21826;BME280;11075;47.944;11.776;2022-09-09T07:49:25;94537.00;;;21.12;27.96
21826;BME280;11075;47.944;11.776;2022-09-09T07:51:59;94565.47;;;21.82;26.57
21826;BME280;11075;47.944;11.776;2022-09-09T07:54:27;94560.06;;;20.39;28.37
21826;BME280;11075;47.944;11.776;2022-09-09T07:56:54;94570.91;;;19.98;28.34
21826;BME280;11075;47.944;11.776;2022-09-09T07:59:24;94570.59;;;19.01;29.58
21826;BME280;11075;47.944;11.776;2022-09-09T08:01:53;94579.38;;;19.52;28.81
21826;BME280;11075;47.944;11.776;2022-09-09T08:04:24;94569.44;;;18.95;29.32
21826;BME280;11075;47.944;11.776;2022-09-09T08:06:55;94564.84;;;18.28;30.59
21826;BME280;11075;47.944;11.776;2022-09-09T08:09:25;94592.78;;;19.07;29.22
21826;BME280;11075;47.944;11.776;2022-09-09T08:12:05;94578.06;;;18.83;29.77
21826;BME280;11075;47.944;11.776;2022-09-09T08:14:33;94557.72;;;17.42;31.97
21826;BME280;11075;47.944;11.776;2022-09-09T08:17:00;94595.78;;;20.14;28.28
21826;BME280;11075;47.944;11.776;2022-09-09T08:19:28;94580.78;;;18.83;29.62
21826;BME280;11075;47.944;11.776;2022-09-09T08:22:01;94553.56;;;16.79;31.47
21826;BME280;11075;47.944;11.776;2022-09-09T08:24:31;94611.41;;;20.65;27.67
21826;BME280;11075;47.944;11.776;2022-09-09T08:26:58;94592.69;;;20.09;28.29
21826;BME280;11075;47.944;11.776;2022-09-09T08:29:25;94611.66;;;21.19;27.01
21826;BME280;11075;47.944;11.776;2022-09-09T08:31:55;94596.72;;;19.93;28.19
21826;BME280;11075;47.944;11.776;2022-09-09T08:34:25;94586.47;;;19.38;28.80
21826;BME280;11075;47.944;11.776;2022-09-09T08:36:55;94594.41;;;20.44;28.20
21826;BME280;11075;47.944;11.776;2022-09-09T08:39:29;94600.63;;;20.48;27.66
21826;BME280;11075;47.944;11.776;2022-09-09T08:44:52;94600.19;;;21.62;26.46
21826;BME280;11075;47.944;11.776;2022-09-09T08:58:25;94598.91;;;21.06;27.45
21826;BME280;11075;47.944;11.776;2022-09-09T09:01:14;94601.16;;;21.48;27.21
21826;BME280;11075;47.944;11.776;2022-09-09T09:06:41;94604.06;;;22.22;25.72
21826;BME280;11075;47.944;11.776;2022-09-09T09:09:28;94578.13;;;20.71;27.95
21826;BME280;11075;47.944;11.776;2022-09-09T09:11:59;94579.28;;;20.25;28.14
21826;BME280;11075;47.944;11.776;2022-09-09T09:14:35;94600.94;;;20.98;27.88
21826;BME280;11075;47.944;11.776;2022-09-09T09:17:25;94609.19;;;21.93;26.98
21826;BME280;11075;47.944;11.776;2022-09-09T09:19:54;94570.97;;;19.87;29.41
21826;BME280;11075;47.944;11.776;2022-09-09T09:22:34;94592.09;;;19.83;28.72
21826;BME280;11075;47.944;11.776;2022-09-09T09:25:15;94610.13;;;21.79;27.25
21826;BME280;11075;47.944;11.776;2022-09-09T09:27:58;94631.97;;;22.44;25.66
21826;BME280;11075;47.944;11.776;2022-09-09T09:30:39;94601.75;;;21.63;27.38
21826;BME280;11075;47.944;11.776;2022-09-09T09:35:45;94642.41;;;23.23;25.37
21826;BME280;11075;47.944;11.776;2022-09-09T09:38:23;94616.81;;;21.14;27.55
21826;BME280;11075;47.944;11.776;2022-09-09T09:41:12;94627.53;;;20.97;27.53
21826;BME280;11075;47.944;11.776;2022-09-09T09:43:40;94616.78;;;20.76;27.72
21826;BME280;11075;47.944;11.776;2022-09-09T09:46:22;94641.31;;;21.92;26.31
21826;BME280;11075;47.944;11.776;2022-09-09T09:49:05;94641.06;;;22.10;26.19
21826;BME280;11075;47.944;11.776;2022-09-09T09:51:33;94610.41;;;20.45;28.39
21826;BME280;11075;47.944;11.776;2022-09-09T09:54:32;94614.09;;;20.21;28.91
21826;BME280;11075;47.944;11.776;2022-09-09T09:57:12;94619.66;;;20.07;28.68
21826;BME280;11075;47.944;11.776;2022-09-09T09:59:43;94639.44;;;20.77;27.62
21826;BME280;11075;47.944;11.776;2022-09-09T10:05:04;94630.53;;;19.44;29.93
21826;BME280;11075;47.944;11.776;2022-09-09T10:07:34;94637.91;;;20.76;28.31
21826;BME280;11075;47.944;11.776;2022-09-09T10:10:03;94617.13;;;19.71;29.89
21826;BME280;11075;47.944;11.776;2022-09-09T10:36:58;94622.03;;;22.00;27.52
21826;BME280;11075;47.944;11.776;2022-09-09T10:39:39;94622.34;;;21.44;28.91
21826;BME280;11075;47.944;11.776;2022-09-09T10:42:16;94636.00;;;22.36;27.01
21826;BME280;11075;47.944;11.776;2022-09-09T10:50:46;94627.69;;;20.35;28.45
21826;BME280;11075;47.944;11.776;2022-09-09T10:53:37;94621.28;;;19.97;29.25
21826;BME280;11075;47.944;11.776;2022-09-09T10:56:16;94634.91;;;20.08;28.89
21826;BME280;11075;47.944;11.776;2022-09-09T10:59:10;94606.53;;;18.47;31.06
21826;BME280;11075;47.944;11.776;2022-09-09T11:01:47;94632.09;;;20.15;29.14
21826;BME280;11075;47.944;11.776;2022-09-09T11:04:22;94622.13;;;18.42;30.16
21826;BME280;11075;47.944;11.776;2022-09-09T11:06:55;94644.41;;;20.48;27.66
21826;BME280;11075;47.944;11.776;2022-09-09T11:09:25;94659.84;;;21.51;26.50
21826;BME280;11075;47.944;11.776;2022-09-09T11:11:57;94634.03;;;20.70;28.09
21826;BME280;11075;47.944;11.776;2022-09-09T11:14:32;94624.63;;;20.22;28.76
21826;BME280;11075;47.944;11.776;2022-09-09T11:22:31;94641.13;;;22.07;26.76
21826;BME280;11075;47.944;11.776;2022-09-09T11:25:01;94628.91;;;21.16;27.45
21826;BME280;11075;47.944;11.776;2022-09-09T11:30:17;94638.09;;;21.67;27.26
21826;BME280;11075;47.944;11.776;2022-09-09T11:38:27;94597.63;;;20.31;29.13
21826;BME280;11075;47.944;11.776;2022-09-09T11:41:04;94620.94;;;20.47;28.49
21826;BME280;11075;47.944;11.776;2022-09-09T11:43:53;94626.41;;;21.33;27.73
21826;BME280;11075;47.944;11.776;2022-09-09T11:46:22;94625.34;;;21.19;27.87
21826;BME280;11075;47.944;11.776;2022-09-09T11:49:02;94621.50;;;20.72;28.17
21826;BME280;11075;47.944;11.776;2022-09-09T11:51:32;94604.97;;;19.83;29.95
21826;BME280;11075;47.944;11.776;2022-09-09T11:55:07;94608.16;;;20.29;28.86
21826;BME280;11075;47.944;11.776;2022-09-09T11:57:32;94623.50;;;21.09;28.31
21826;BME280;11075;47.944;11.776;2022-09-09T12:00:02;94610.84;;;20.85;28.52
21826;BME280;11075;47.944;11.776;2022-09-09T12:02:48;94627.16;;;21.98;26.92
21826;BME280;11075;47.944;11.776;2022-09-09T12:05:16;94614.41;;;21.53;27.60
21826;BME280;11075;47.944;11.776;2022-09-09T12:07:56;94603.53;;;19.57;30.21
21826;BME280;11075;47.944;11.776;2022-09-09T12:10:28;94619.78;;;20.92;27.80
21826;BME280;11075;47.944;11.776;2022-09-09T12:13:08;94645.28;;;22.69;25.77
21826;BME280;11075;47.944;11.776;2022-09-09T12:15:56;94604.31;;;20.72;28.22
21826;BME280;11075;47.944;11.776;2022-09-09T12:18:42;94605.09;;;22.05;27.72
21826;BME280;11075;47.944;11.776;2022-09-09T12:23:47;94619.03;;;21.90;26.76
21826;BME280;11075;47.944;11.776;2022-09-09T12:26:34;94608.75;;;22.95;26.75
21826;BME280;11075;47.944;11.776;2022-09-09T12:34:34;94601.44;;;21.57;26.84
21826;BME280;11075;47.944;11.776;2022-09-09T12:37:09;94625.16;;;23.42;25.63
21826;BME280;11075;47.944;11.776;2022-09-09T12:39:45;94629.88;;;24.17;24.70
21826;BME280;11075;47.944;11.776;2022-09-09T12:42:21;94599.81;;;23.11;26.03
21826;BME280;11075;47.944;11.776;2022-09-09T12:44:59;94589.53;;;21.98;27.38
21826;BME280;11075;47.944;11.776;2022-09-09T12:47:40;94611.66;;;23.87;24.98
21826;BME280;11075;47.944;11.776;2022-09-09T12:50:46;94611.47;;;24.14;24.78
21826;BME280;11075;47.944;11.776;2022-09-09T12:53:40;94615.50;;;24.58;24.54
21826;BME280;11075;47.944;11.776;2022-09-09T12:56:09;94602.94;;;24.41;24.75
21826;BME280;11075;47.944;11.776;2022-09-09T12:58:46;94590.84;;;23.66;25.42
21826;BME280;11075;47.944;11.776;2022-09-09T13:01:26;94602.44;;;24.46;24.65
21826;BME280;11075;47.944;11.776;2022-09-09T13:03:54;94587.00;;;24.00;25.13
21826;BME280;11075;47.944;11.776;2022-09-09T13:06:24;94562.16;;;21.37;28.03
21826;BME280;11075;47.944;11.776;2022-09-09T13:09:00;94573.97;;;22.42;27.08
21826;BME280;11075;47.944;11.776;2022-09-09T13:11:36;94567.75;;;21.26;28.45
21826;BME280;11075;47.944;11.776;2022-09-09T13:14:05;94598.28;;;23.69;25.34
21826;BME280;11075;47.944;11.776;2022-09-09T13:16:34;94586.59;;;23.45;25.46
21826;BME280;11075;47.944;11.776;2022-09-09T13:19:10;94568.31;;;22.02;27.60
21826;BME280;11075;47.944;11.776;2022-09-09T13:21:40;94583.38;;;22.64;26.15
21826;BME280;11075;47.944;11.776;2022-09-09T13:24:25;94555.19;;;22.40;26.98
21826;BME280;11075;47.944;11.776;2022-09-09T13:27:02;94566.00;;;22.94;26.23
21826;BME280;11075;47.944;11.776;2022-09-09T13:29:31;94569.44;;;22.78;26.17
21826;BME280;11075;47.944;11.776;2022-09-09T13:32:05;94567.03;;;22.57;26.50
21826;BME280;11075;47.944;11.776;2022-09-09T13:34:35;94575.38;;;23.56;25.31
21826;BME280;11075;47.944;11.776;2022-09-09T13:37:05;94571.78;;;23.19;25.71
21826;BME280;11075;47.944;11.776;2022-09-09T13:39:36;94565.72;;;23.48;26.04
21826;BME280;11075;47.944;11.776;2022-09-09T13:42:04;94554.78;;;21.30;27.52
21826;BME280;11075;47.944;11.776;2022-09-09T13:44:35;94570.31;;;23.35;25.73
21826;BME280;11075;47.944;11.776;2022-09-09T13:47:05;94533.97;;;21.37;27.26
21826;BME280;11075;47.944;11.776;2022-09-09T13:49:36;94547.63;;;23.31;25.36
21826;BME280;11075;47.944;11.776;2022-09-09T13:52:11;94526.41;;;20.80;27.29
21826;BME280;11075;47.944;11.776;2022-09-09T13:54:40;94533.78;;;21.51;27.55
21826;BME280;11075;47.944;11.776;2022-09-09T13:57:24;94552.63;;;22.03;26.60
21826;BME280;11075;47.944;11.776;2022-09-09T13:59:53;94559.75;;;22.23;26.71
21826;BME280;11075;47.944;11.776;2022-09-09T14:02:36;94548.56;;;21.26;27.16
21826;BME280;11075;47.944;11.776;2022-09-09T14:05:05;94554.50;;;22.09;26.66
21826;BME280;11075;47.944;11.776;2022-09-09T14:07:32;94549.31;;;22.62;26.11
21826;BME280;11075;47.944;11.776;2022-09-09T14:09:59;94509.25;;;19.93;29.18
21826;BME280;11075;47.944;11.776;2022-09-09T14:12:27;94531.63;;;21.92;28.01
21826;BME280;11075;47.944;11.776;2022-09-09T14:14:54;94535.41;;;22.25;27.23
21826;BME280;11075;47.944;11.776;2022-09-09T14:17:21;94566.41;;;23.52;25.13
21826;BME280;11075;47.944;11.776;2022-09-09T14:19:48;94536.13;;;22.96;26.57
21826;BME280;11075;47.944;11.776;2022-09-09T14:22:15;94560.78;;;24.76;24.28
21826;BME280;11075;47.944;11.776;2022-09-09T14:24:42;94538.84;;;23.75;25.88
21826;BME280;11075;47.944;11.776;2022-09-09T14:27:09;94547.63;;;24.52;24.87
21826;BME280;11075;47.944;11.776;2022-09-09T14:29:35;94542.28;;;24.12;25.42
21826;BME280;11075;47.944;11.776;2022-09-09T14:32:03;94544.59;;;23.81;25.91
21826;BME280;11075;47.944;11.776;2022-09-09T14:34:30;94510.91;;;22.15;27.72
21826;BME280;11075;47.944;11.776;2022-09-09T14:36:58;94526.47;;;22.21;27.30
21826;BME280;11075;47.944;11.776;2022-09-09T14:39:25;94555.44;;;23.88;24.90
21826;BME280;11075;47.944;11.776;2022-09-09T14:41:52;94537.75;;;22.27;25.99
21826;BME280;11075;47.944;11.776;2022-09-09T14:44:19;94522.94;;;21.71;27.60
21826;BME280;11075;47.944;11.776;2022-09-09T14:46:46;94529.63;;;22.67;26.33
21826;BME280;11075;47.944;11.776;2022-09-09T14:49:12;94534.88;;;23.01;25.97
21826;BME280;11075;47.944;11.776;2022-09-09T14:51:39;94514.81;;;21.03;27.52
21826;BME280;11075;47.944;11.776;2022-09-09T14:54:06;94556.72;;;23.83;24.45
21826;BME280;11075;47.944;11.776;2022-09-09T14:56:34;94523.75;;;22.45;26.22
21826;BME280;11075;47.944;11.776;2022-09-09T14:59:01;94534.94;;;22.54;25.88
21826;BME280;11075;47.944;11.776;2022-09-09T15:01:30;94550.69;;;23.72;24.73
21826;BME280;11075;47.944;11.776;2022-09-09T15:04:00;94513.34;;;22.09;26.37
21826;BME280;11075;47.944;11.776;2022-09-09T15:06:30;94546.25;;;23.59;24.87
21826;BME280;11075;47.944;11.776;2022-09-09T15:08:57;94528.38;;;22.48;25.47
21826;BME280;11075;47.944;11.776;2022-09-09T15:11:26;94510.22;;;22.34;26.51
21826;BME280;11075;47.944;11.776;2022-09-09T15:13:54;94554.75;;;23.84;24.23
21826;BME280;11075;47.944;11.776;2022-09-09T15:16:24;94508.97;;;21.35;27.12
21826;BME280;11075;47.944;11.776;2022-09-09T15:18:54;94537.81;;;22.90;25.17
21826;BME280;11075;47.944;11.776;2022-09-09T15:21:23;94517.31;;;21.81;26.29
21826;BME280;11075;47.944;11.776;2022-09-09T15:23:50;94521.16;;;22.11;25.95